KHPNKLDJ

Guest
Details From KHPN - Westchester Co
To KLDJ - Linden
Flight Number -
Tags Generated
Created
Modified
Stats Distance 36 nm / 67 km
Max Altitude 0 ft / 0 m
Waypoints 2
Social Downloads 1
Likes 0
Share VATSIM

Download

Looking for another format? Having issues loading an existing format? Contact us
Advertisement - Login to hide

Notes

Generated

Route

KHPN KLDJ

ID Type Via Altitude Latitude Longitude Leg Dist Tot Dist Heading (true) Name
O KHPN APT - 0 ft / 0 m 41.06705˚ -73.71576˚ - 0 nm - -
O KLDJ APT - 0 ft / 0 m 40.61604˚ -74.25182˚ 36 nm 36 nm 222° / 222° -

Altitude Profile

Advertisement - Login to hide

KHPN

Details ICAO KHPN (HPN)
Name WESTCHESTER CO
Region United States
Timezone America/New_York (UTC-5.0)
Stats Elevation 439 ft / 134 m (AMSL)
Location 41.066758° -73.707617°
Runways 2
Magnetic Variation 13.131° W

METAR

KHPN 131256Z 28017G33KT 10SM FEW038 M07/M16 A2947 RMK AO2 PK WND 30033/1251 SLP988 T10721161

Decode

TAF

TAF KHPN 131131Z 1312/1412 28018G30KT P6SM FEW050 SCT170 FM131600 29023G36KT P6SM FEW040 SCT200 FM132100 29020G31KT P6SM SCT200 FM132300 28015G28KT P6SM FEW150 FEW200 FM140700 27008KT P6SM VCSH BKN025 FM141100 27005KT 2SM -SN BKN020 AMD NOT SKED

Decode

Departure Runways

ID Width Length Bearing (true) Bearing (mag) Surface Threshold Offset Overrun Length
11 151 ft / 46 m 4,441 ft / 1,354 m 102.45° 115.58° Asphalt 0 ft / 0 m 0 ft / 0 m
16 151 ft / 46 m 6,551 ft / 1,997 m 149.99° 163.12° Asphalt 0 ft / 0 m 200 ft / 61 m
29 151 ft / 46 m 4,441 ft / 1,354 m 282.46° 295.59° Asphalt 1,296 ft / 395 m 0 ft / 0 m
34 151 ft / 46 m 6,551 ft / 1,997 m 330.00° 343.13° Asphalt 0 ft / 0 m 200 ft / 61 m

KLDJ

Details ICAO KLDJ (LDJ)
Name LINDEN
Region United States
Timezone America/New_York (UTC-5.0)
Stats Elevation 23 ft / 7 m (AMSL)
Location 40.617449° -74.244595°
Runways 1
Magnetic Variation 12.754° W

METAR

KLDJ 131255Z AUTO 29011G25KT 10SM CLR M06/M15 A2958 RMK AO2 T10601148

Decode

TAF

Not found

Destination Runways

ID Width Length Bearing (true) Bearing (mag) Surface Threshold Offset Overrun Length
09 98 ft / 30 m 4,131 ft / 1,259 m 75.60° 88.35° Asphalt 459 ft / 140 m 200 ft / 61 m
27 98 ft / 30 m 4,131 ft / 1,259 m 255.61° 268.36° Asphalt 545 ft / 166 m 200 ft / 61 m